createdAt,value
2022-08-14T00:02:17.133Z,82.39
2022-08-14T00:04:45.615Z,81.15
2022-08-14T00:07:14.837Z,81.28
2022-08-14T00:09:55.706Z,84.64
2022-08-14T00:12:39.316Z,86.22
2022-08-14T00:15:15.011Z,87.52
2022-08-14T00:17:48.171Z,88.80
2022-08-14T00:20:31.001Z,89.65
2022-08-14T00:23:12.401Z,89.71
2022-08-14T00:25:58.636Z,89.10
2022-08-14T00:28:37.222Z,87.20
2022-08-14T00:31:07.822Z,89.44
2022-08-14T00:33:52.311Z,91.97
2022-08-14T00:36:35.993Z,93.34
2022-08-14T00:39:18.286Z,93.69
2022-08-14T00:41:48.261Z,94.26
2022-08-14T00:44:27.654Z,93.04
2022-08-14T00:47:03.498Z,93.72
2022-08-14T00:49:37.938Z,94.35
2022-08-14T00:52:07.214Z,96.13
2022-08-14T00:54:37.362Z,95.27
2022-08-14T00:57:07.057Z,95.14
2022-08-14T00:59:39.569Z,94.49
2022-08-14T01:02:10.657Z,95.21
2022-08-14T01:04:54.077Z,96.25
2022-08-14T01:07:24.757Z,96.16
2022-08-14T01:10:01.653Z,96.64
2022-08-14T01:12:30.788Z,96.26
2022-08-14T01:15:03.049Z,96.28
2022-08-14T01:17:49.793Z,96.95
2022-08-14T01:20:40.130Z,97.50
2022-08-14T01:23:16.626Z,98.28
2022-08-14T01:25:51.329Z,96.14
2022-08-14T01:28:47.333Z,95.89
2022-08-14T01:31:15.644Z,98.07
2022-08-14T01:33:59.859Z,98.20
2022-08-14T01:36:39.354Z,98.46
2022-08-14T01:39:13.167Z,97.95
2022-08-14T01:41:44.198Z,94.53
2022-08-14T01:44:32.854Z,96.07
2022-08-14T01:47:21.983Z,96.36
2022-08-14T01:49:59.699Z,98.01
2022-08-14T01:53:00.140Z,96.35
2022-08-14T01:55:30.513Z,97.79
2022-08-14T01:58:02.249Z,99.61
2022-08-14T02:00:54.676Z,100.00
2022-08-14T02:03:30.274Z,100.00
2022-08-14T02:06:04.163Z,98.93
2022-08-14T02:08:52.476Z,99.58
2022-08-14T02:11:24.331Z,100.00
2022-08-14T02:14:06.834Z,100.00
2022-08-14T02:16:44.213Z,100.00
2022-08-14T02:19:17.810Z,100.00
2022-08-14T02:21:50.553Z,100.00
2022-08-14T02:24:39.776Z,100.00
2022-08-14T02:28:23.806Z,100.00
2022-08-14T02:30:02.187Z,100.00
2022-08-14T02:32:44.633Z,100.00
2022-08-14T02:35:17.826Z,100.00
2022-08-14T02:37:49.145Z,100.00
2022-08-14T02:40:19.340Z,100.00
2022-08-14T02:42:54.819Z,100.00
2022-08-14T02:45:38.511Z,100.00
2022-08-14T02:49:03.283Z,100.00
2022-08-14T02:51:07.225Z,100.00
2022-08-14T02:53:42.387Z,100.00
2022-08-14T02:56:30.453Z,100.00
2022-08-14T02:59:07.745Z,100.00
2022-08-14T03:01:50.162Z,100.00
2022-08-14T03:04:20.163Z,100.00
2022-08-14T03:07:06.043Z,100.00
2022-08-14T03:10:24.181Z,100.00
2022-08-14T03:12:32.288Z,100.00
2022-08-14T03:15:13.967Z,100.00
2022-08-14T03:17:57.181Z,100.00
2022-08-14T03:20:27.833Z,100.00
2022-08-14T03:22:57.176Z,100.00
2022-08-14T03:25:25.409Z,100.00
2022-08-14T03:27:58.633Z,100.00
2022-08-14T03:30:39.052Z,100.00
2022-08-14T03:33:10.329Z,100.00
2022-08-14T03:35:59.886Z,100.00
2022-08-14T03:39:11.565Z,100.00
2022-08-14T03:41:23.287Z,100.00
2022-08-14T03:43:57.742Z,100.00
2022-08-14T03:46:51.885Z,100.00
2022-08-14T03:49:28.925Z,100.00
2022-08-14T03:52:00.543Z,100.00
2022-08-14T03:54:30.035Z,100.00
2022-08-14T03:57:02.861Z,100.00
2022-08-14T03:59:32.354Z,100.00
2022-08-14T04:02:04.520Z,100.00
2022-08-14T04:04:53.396Z,100.00
2022-08-14T04:07:22.453Z,100.00
2022-08-14T04:09:51.747Z,100.00
2022-08-14T04:12:26.392Z,100.00
2022-08-14T04:14:55.320Z,100.00
2022-08-14T04:17:26.212Z,100.00
2022-08-14T04:19:55.345Z,100.00
2022-08-14T04:22:25.206Z,100.00
2022-08-14T04:24:53.880Z,100.00
2022-08-14T04:27:23.254Z,100.00
2022-08-14T04:29:51.679Z,100.00
2022-08-14T04:33:01.232Z,100.00
2022-08-14T04:35:10.746Z,100.00
2022-08-14T04:37:56.993Z,100.00
2022-08-14T04:40:42.879Z,100.00
2022-08-14T04:43:38.520Z,100.00
2022-08-14T04:46:11.875Z,100.00
2022-08-14T04:49:00.233Z,100.00
2022-08-14T04:51:37.551Z,100.00
2022-08-14T04:54:16.663Z,100.00
2022-08-14T04:56:45.580Z,100.00
2022-08-14T04:59:14.022Z,100.00
2022-08-14T05:01:48.880Z,100.00
2022-08-14T05:04:20.792Z,100.00
2022-08-14T05:06:53.667Z,100.00
2022-08-14T05:09:24.385Z,100.00
2022-08-14T05:11:53.087Z,100.00
2022-08-14T05:14:45.802Z,100.00
2022-08-14T05:17:13.076Z,100.00
2022-08-14T05:19:44.684Z,100.00
2022-08-14T05:22:31.449Z,100.00
2022-08-14T05:25:00.368Z,100.00
2022-08-14T05:27:31.290Z,100.00
2022-08-14T05:30:01.222Z,100.00
2022-08-14T05:32:29.453Z,100.00
2022-08-14T05:34:59.659Z,100.00
2022-08-14T05:37:30.151Z,99.52
2022-08-14T05:40:02.095Z,99.46
2022-08-14T05:42:31.984Z,98.79
2022-08-14T05:45:03.964Z,97.02
2022-08-14T05:47:39.676Z,96.21
2022-08-14T05:50:18.388Z,95.60
2022-08-14T05:52:50.242Z,94.86
2022-08-14T05:55:23.274Z,97.97
2022-08-14T05:57:59.456Z,94.95
2022-08-14T06:00:36.858Z,94.34
2022-08-14T06:03:11.250Z,91.31
2022-08-14T06:05:40.309Z,91.33
2022-08-14T06:08:31.256Z,90.09
2022-08-14T06:11:08.034Z,86.03
2022-08-14T06:13:45.254Z,86.26
2022-08-14T06:16:17.521Z,82.47
2022-08-14T06:18:48.577Z,81.16
2022-08-14T06:21:21.989Z,79.07
2022-08-14T06:23:51.489Z,81.06
2022-08-14T06:26:22.586Z,77.83
2022-08-14T06:28:58.281Z,76.08
2022-08-14T06:31:26.679Z,75.31
2022-08-14T06:35:03.522Z,73.90
2022-08-14T06:36:43.242Z,76.56
2022-08-14T06:39:12.833Z,73.35
2022-08-14T06:41:59.248Z,71.18
2022-08-14T06:44:33.136Z,74.42
2022-08-14T06:47:04.747Z,73.51
2022-08-14T06:49:40.279Z,69.69
2022-08-14T06:52:15.313Z,73.17
2022-08-14T06:54:45.237Z,69.22
2022-08-14T06:57:15.137Z,67.72
2022-08-14T06:59:43.709Z,69.34
2022-08-14T07:02:29.923Z,69.60
2022-08-14T07:05:20.024Z,67.30
2022-08-14T07:07:49.711Z,69.56
2022-08-14T07:10:22.299Z,66.56
2022-08-14T07:13:03.814Z,65.34
2022-08-14T07:15:40.013Z,68.44
2022-08-14T07:18:12.120Z,68.74
2022-08-14T07:20:42.789Z,67.14
2022-08-14T07:23:19.778Z,67.57
2022-08-14T07:25:52.213Z,65.46
2022-08-14T07:28:27.503Z,64.25
2022-08-14T07:31:04.875Z,65.04
2022-08-14T07:33:36.707Z,61.54
2022-08-14T07:36:26.476Z,63.94
2022-08-14T07:38:56.212Z,61.83
2022-08-14T07:41:24.772Z,62.30
2022-08-14T07:44:06.086Z,61.17
2022-08-14T07:46:49.652Z,61.24
2022-08-14T07:49:18.821Z,63.50
2022-08-14T07:51:49.694Z,59.20
2022-08-14T07:54:23.490Z,57.33
2022-08-14T07:56:59.762Z,60.93
2022-08-14T07:59:42.278Z,54.27
2022-08-14T08:02:17.420Z,56.11
2022-08-14T08:04:54.156Z,59.48
2022-08-14T08:07:24.033Z,56.58
2022-08-14T08:10:01.059Z,57.38
2022-08-14T08:12:32.607Z,55.12
2022-08-14T08:15:07.410Z,57.21
2022-08-14T08:17:42.853Z,53.77
2022-08-14T08:20:27.460Z,53.87
2022-08-14T08:23:00.645Z,51.85
2022-08-14T08:25:40.114Z,51.75
2022-08-14T08:28:19.716Z,49.98
2022-08-14T08:30:59.900Z,51.02
2022-08-14T08:33:37.135Z,48.38
2022-08-14T08:36:12.769Z,46.34
2022-08-14T08:39:14.493Z,47.40
2022-08-14T08:41:43.634Z,45.18
2022-08-14T08:44:17.525Z,44.45
2022-08-14T08:47:06.111Z,43.39
2022-08-14T08:49:43.370Z,45.50
2022-08-14T08:52:25.593Z,43.89
2022-08-14T08:54:59.599Z,42.81
2022-08-14T08:57:37.514Z,44.79
2022-08-14T09:00:24.605Z,43.89
2022-08-14T09:02:59.267Z,42.50
2022-08-14T09:05:28.806Z,44.51
2022-08-14T09:08:30.511Z,41.33
2022-08-14T09:11:18.820Z,42.04
2022-08-14T09:13:52.416Z,41.24
2022-08-14T09:16:24.996Z,40.85
2022-08-14T09:18:56.190Z,45.58
2022-08-14T09:21:31.473Z,40.63
2022-08-14T09:24:28.745Z,40.24
2022-08-14T09:26:50.685Z,39.75
2022-08-14T09:29:23.467Z,38.25
2022-08-14T09:31:57.528Z,39.85
2022-08-14T09:34:58.902Z,39.51
2022-08-14T09:37:45.616Z,38.69
2022-08-14T09:40:32.620Z,36.22
2022-08-14T09:43:22.397Z,37.27
2022-08-14T09:45:53.918Z,36.25
2022-08-14T09:48:27.541Z,37.59
2022-08-14T09:54:17.848Z,35.44
2022-08-14T09:56:45.717Z,37.42
2022-08-14T09:59:22.094Z,35.25
2022-08-14T10:01:52.582Z,36.93
2022-08-14T10:04:34.799Z,33.06
2022-08-14T10:07:08.576Z,35.77
2022-08-14T10:09:59.658Z,33.35
2022-08-14T10:12:52.943Z,36.83
2022-08-14T10:15:26.377Z,35.98
2022-08-14T10:18:17.514Z,36.48
2022-08-14T10:20:57.666Z,36.00
2022-08-14T10:23:33.945Z,34.69
2022-08-14T10:26:08.749Z,35.62
2022-08-14T10:29:18.841Z,35.45
2022-08-14T10:31:40.336Z,35.06
2022-08-14T10:34:29.133Z,34.72
2022-08-14T10:37:14.410Z,32.52
2022-08-14T10:40:01.570Z,31.92
2022-08-14T10:42:38.534Z,32.80
2022-08-14T10:45:21.383Z,33.48
2022-08-14T10:48:08.233Z,35.54
2022-08-14T10:50:46.502Z,33.00
2022-08-14T10:53:15.876Z,32.94
2022-08-14T10:55:48.183Z,33.35
2022-08-14T10:58:32.947Z,33.52
2022-08-14T11:01:05.496Z,31.19
2022-08-14T11:03:56.580Z,34.22
2022-08-14T11:06:27.281Z,34.41
2022-08-14T11:08:56.072Z,29.92
2022-08-14T11:11:28.661Z,30.59
2022-08-14T11:14:09.263Z,30.98
2022-08-14T11:16:40.979Z,31.02
2022-08-14T11:19:20.547Z,32.63
2022-08-14T11:21:56.182Z,31.38
2022-08-14T11:24:54.879Z,33.96
2022-08-14T11:27:25.763Z,31.06
2022-08-14T11:30:51.338Z,31.05
2022-08-14T11:32:55.674Z,31.34
2022-08-14T11:35:44.177Z,30.97
2022-08-14T11:38:19.938Z,30.76
2022-08-14T11:40:49.523Z,31.46
2022-08-14T11:43:22.647Z,28.99
2022-08-14T11:45:58.418Z,33.29
2022-08-14T11:49:02.470Z,32.46
2022-08-14T11:51:30.378Z,32.28
2022-08-14T11:54:06.234Z,32.55
2022-08-14T11:56:37.761Z,31.50
2022-08-14T11:59:10.199Z,30.26
2022-08-14T12:01:41.187Z,28.37
2022-08-14T12:04:32.413Z,31.52
2022-08-14T12:07:03.570Z,30.11
2022-08-14T12:09:34.152Z,29.14
2022-08-14T12:12:36.320Z,30.56
2022-08-14T12:15:14.105Z,29.46
2022-08-14T12:17:55.921Z,30.19
2022-08-14T12:20:32.992Z,32.62
2022-08-14T12:23:05.254Z,30.29
2022-08-14T12:25:36.697Z,30.46
2022-08-14T12:28:27.325Z,29.95
2022-08-14T12:31:16.963Z,28.69
2022-08-14T12:34:01.161Z,29.62
2022-08-14T12:36:31.876Z,30.04
2022-08-14T12:39:04.537Z,29.11
2022-08-14T12:41:37.193Z,28.37
2022-08-14T12:44:08.965Z,27.32
2022-08-14T12:46:43.341Z,28.31
2022-08-14T12:49:16.462Z,29.55
2022-08-14T12:51:56.932Z,28.41
2022-08-14T12:54:28.310Z,28.88
2022-08-14T12:57:08.726Z,28.73
2022-08-14T12:59:42.654Z,29.14
2022-08-14T13:02:26.063Z,27.74
2022-08-14T13:04:58.282Z,28.78
2022-08-14T13:07:32.827Z,28.67
2022-08-14T13:10:12.735Z,27.88
2022-08-14T13:13:13.265Z,28.21
2022-08-14T13:15:47.163Z,28.15
2022-08-14T13:18:19.635Z,27.69
2022-08-14T13:20:59.730Z,27.54
2022-08-14T13:23:37.524Z,30.50
2022-08-14T13:26:10.099Z,28.72
2022-08-14T13:29:02.842Z,27.68
2022-08-14T13:31:37.326Z,25.93
2022-08-14T13:34:08.754Z,25.43
2022-08-14T13:36:51.654Z,26.91
2022-08-14T13:39:29.925Z,26.63
2022-08-14T13:42:04.785Z,26.39
2022-08-14T13:44:42.507Z,27.43
2022-08-14T13:47:15.943Z,26.77
2022-08-14T13:49:57.657Z,26.67
2022-08-14T13:52:52.868Z,25.13
2022-08-14T13:55:28.566Z,26.66
2022-08-14T13:58:03.490Z,27.34
2022-08-14T14:00:51.685Z,27.67
2022-08-14T14:03:23.458Z,27.92
2022-08-14T14:05:57.303Z,26.47
2022-08-14T14:08:46.382Z,26.26
2022-08-14T14:11:24.655Z,26.74
2022-08-14T14:13:56.727Z,26.72
2022-08-14T14:16:30.887Z,28.04
2022-08-14T14:19:09.760Z,28.24
2022-08-14T14:21:42.116Z,28.09
2022-08-14T14:24:16.138Z,28.20
2022-08-14T14:26:49.897Z,27.30
2022-08-14T14:29:24.258Z,28.96
2022-08-14T14:31:58.543Z,28.81
2022-08-14T14:34:33.697Z,26.73
2022-08-14T14:37:07.928Z,29.17
2022-08-14T14:40:53.583Z,27.91
2022-08-14T14:42:35.425Z,29.23
2022-08-14T14:45:15.489Z,27.79
2022-08-14T14:47:48.078Z,28.48
2022-08-14T14:50:18.435Z,29.90
2022-08-14T14:52:51.231Z,31.24
2022-08-14T14:55:21.504Z,30.71
2022-08-14T14:57:52.049Z,28.79
2022-08-14T15:00:31.138Z,29.07
2022-08-14T15:03:00.926Z,27.77
2022-08-14T15:05:30.917Z,27.71
2022-08-14T15:08:05.186Z,28.34
2022-08-14T15:10:38.282Z,28.16
2022-08-14T15:13:09.911Z,28.94
2022-08-14T15:15:40.262Z,28.01
2022-08-14T15:18:35.867Z,28.60
2022-08-14T15:21:02.927Z,28.50
2022-08-14T15:23:44.313Z,27.55
2022-08-14T15:26:24.545Z,29.06
2022-08-14T15:29:05.658Z,30.27
2022-08-14T15:31:37.138Z,31.39
2022-08-14T15:34:45.885Z,29.67
2022-08-14T15:37:03.125Z,30.57
2022-08-14T15:39:34.012Z,30.58
2022-08-14T15:42:14.958Z,31.64
2022-08-14T15:44:57.464Z,31.23
2022-08-14T15:47:29.611Z,29.67
2022-08-14T15:50:00.559Z,30.08
2022-08-14T15:52:32.700Z,30.21
2022-08-14T15:55:08.444Z,30.46
2022-08-14T15:57:37.173Z,31.23
2022-08-14T16:00:44.425Z,30.62
2022-08-14T16:03:16.651Z,32.22
2022-08-14T16:05:45.766Z,31.50
2022-08-14T16:08:27.308Z,32.57
2022-08-14T16:11:09.833Z,31.80
2022-08-14T16:13:45.426Z,33.49
2022-08-14T16:16:34.472Z,32.15
2022-08-14T16:19:21.461Z,34.60
2022-08-14T16:22:01.515Z,34.22
2022-08-14T16:25:02.082Z,34.28
2022-08-14T16:27:38.745Z,33.49
2022-08-14T16:30:25.001Z,34.02
2022-08-14T16:32:59.561Z,34.61
2022-08-14T16:35:42.354Z,35.41
2022-08-14T16:38:46.320Z,35.95
2022-08-14T16:41:26.668Z,35.88
2022-08-14T16:44:02.635Z,36.95
2022-08-14T16:46:38.314Z,36.55
2022-08-14T16:49:16.262Z,36.37
2022-08-14T16:51:52.728Z,36.67
2022-08-14T16:54:35.196Z,36.62
2022-08-14T16:57:21.103Z,37.62
2022-08-14T16:59:57.629Z,37.03
2022-08-14T17:02:38.876Z,37.04
2022-08-14T17:05:22.354Z,37.64
2022-08-14T17:08:46.061Z,38.55
2022-08-14T17:11:12.981Z,38.04
2022-08-14T17:13:58.754Z,37.95
2022-08-14T17:16:38.549Z,38.41
2022-08-14T17:19:14.236Z,39.91
2022-08-14T17:21:47.868Z,41.01
2022-08-14T17:24:56.043Z,42.20
2022-08-14T17:27:10.416Z,42.43
2022-08-14T17:29:56.449Z,44.03
2022-08-14T17:32:44.236Z,43.16
2022-08-14T17:35:53.090Z,42.99
2022-08-14T17:38:39.133Z,44.13
2022-08-14T17:41:32.997Z,44.98
2022-08-14T17:44:19.837Z,46.51
2022-08-14T17:46:57.217Z,45.85
2022-08-14T17:49:32.063Z,46.43
2022-08-14T17:52:17.600Z,46.44
2022-08-14T17:54:52.647Z,47.68
2022-08-14T17:57:35.560Z,47.76
2022-08-14T18:00:15.489Z,47.88
2022-08-14T18:02:51.252Z,47.88
2022-08-14T18:06:08.486Z,48.12
2022-08-14T18:08:31.951Z,47.76
2022-08-14T18:11:05.565Z,48.26
2022-08-14T18:13:51.920Z,48.87
2022-08-14T18:16:24.012Z,49.14
2022-08-14T18:19:05.006Z,49.01
2022-08-14T18:21:57.225Z,49.68
2022-08-14T18:24:31.869Z,50.33
2022-08-14T18:27:09.322Z,51.07
2022-08-14T18:29:54.505Z,51.29
2022-08-14T18:32:47.128Z,51.90
2022-08-14T18:35:19.668Z,52.13
2022-08-14T18:37:55.861Z,51.82
2022-08-14T18:40:34.505Z,53.04
2022-08-14T18:43:06.208Z,53.59
2022-08-14T18:45:41.357Z,54.04
2022-08-14T18:48:50.232Z,59.28
2022-08-14T18:51:45.692Z,59.89
2022-08-14T18:54:32.922Z,62.42
2022-08-14T18:57:03.433Z,62.56
2022-08-14T18:59:43.095Z,62.97
2022-08-14T19:02:45.869Z,63.07
2022-08-14T19:05:14.399Z,62.52
2022-08-14T19:07:48.268Z,62.37
2022-08-14T19:10:37.310Z,63.24
2022-08-14T19:13:11.942Z,62.39
2022-08-14T19:15:45.412Z,63.05
2022-08-14T19:18:28.461Z,63.23
2022-08-14T19:21:02.892Z,62.59
2022-08-14T19:23:59.243Z,62.67
2022-08-14T19:26:51.797Z,61.97
2022-08-14T19:29:37.569Z,62.49
2022-08-14T19:32:40.172Z,63.42
2022-08-14T19:35:59.666Z,63.50
2022-08-14T19:38:57.690Z,64.79
2022-08-14T19:41:33.986Z,63.78
2022-08-14T19:44:19.277Z,64.27
2022-08-14T19:47:01.793Z,63.70
2022-08-14T19:50:07.705Z,63.74
2022-08-14T19:52:37.075Z,64.47
2022-08-14T19:55:18.370Z,64.04
2022-08-14T19:57:52.028Z,64.20
2022-08-14T20:00:28.925Z,64.17
2022-08-14T20:03:10.080Z,64.25
2022-08-14T20:05:45.694Z,62.91
2022-08-14T20:09:05.087Z,63.01
2022-08-14T20:12:00.210Z,63.33
2022-08-14T20:14:20.615Z,63.62
2022-08-14T20:17:04.736Z,63.69
2022-08-14T20:19:41.694Z,63.95
2022-08-14T20:22:35.717Z,63.75
2022-08-14T20:25:19.404Z,64.78
2022-08-14T20:27:59.387Z,64.99
2022-08-14T20:30:33.515Z,64.92
2022-08-14T20:33:10.885Z,65.14
2022-08-14T20:35:49.458Z,65.36
2022-08-14T20:38:30.874Z,76.70
2022-08-14T20:41:12.325Z,83.86
2022-08-14T20:43:57.559Z,92.77
2022-08-14T20:46:31.378Z,98.81
2022-08-14T20:49:04.062Z,99.48
2022-08-14T20:51:47.706Z,98.85
2022-08-14T20:54:36.934Z,100.00
2022-08-14T20:57:22.954Z,100.00
2022-08-14T20:59:57.194Z,100.00
2022-08-14T21:02:46.267Z,100.00
2022-08-14T21:05:23.706Z,100.00
2022-08-14T21:08:10.169Z,100.00
2022-08-14T21:10:56.709Z,100.00
2022-08-14T21:14:20.717Z,100.00
2022-08-14T21:16:34.760Z,100.00
2022-08-14T21:19:06.487Z,100.00
2022-08-14T21:21:41.434Z,100.00
2022-08-14T21:24:39.429Z,100.00
2022-08-14T21:27:12.778Z,100.00
2022-08-14T21:29:55.335Z,100.00
2022-08-14T21:32:50.284Z,100.00
2022-08-14T21:35:28.718Z,100.00
2022-08-14T21:37:58.476Z,100.00
2022-08-14T21:40:40.583Z,100.00
2022-08-14T21:43:17.629Z,100.00
2022-08-14T21:45:53.659Z,100.00
2022-08-14T21:48:25.263Z,100.00
2022-08-14T21:51:52.540Z,100.00
2022-08-14T21:53:58.679Z,100.00
2022-08-14T21:56:38.326Z,100.00
2022-08-14T21:59:17.939Z,100.00
2022-08-14T22:01:59.542Z,100.00
2022-08-14T22:04:34.344Z,100.00
2022-08-14T22:07:07.150Z,100.00
2022-08-14T22:09:37.049Z,100.00
2022-08-14T22:12:08.391Z,100.00
2022-08-14T22:14:43.231Z,100.00
2022-08-14T22:17:17.054Z,100.00
2022-08-14T22:19:54.602Z,100.00
2022-08-14T22:22:26.578Z,100.00
2022-08-14T22:25:00.048Z,100.00
2022-08-14T22:27:31.252Z,100.00
2022-08-14T22:30:03.027Z,100.00
2022-08-14T22:32:55.877Z,100.00
2022-08-14T22:35:23.479Z,100.00
2022-08-14T22:38:34.548Z,100.00
2022-08-14T22:41:07.179Z,100.00
2022-08-14T22:43:35.961Z,100.00
2022-08-14T22:46:15.137Z,100.00
2022-08-14T22:48:51.071Z,100.00
2022-08-14T22:51:23.827Z,100.00
2022-08-14T22:53:56.737Z,100.00
2022-08-14T22:56:30.041Z,100.00
2022-08-14T22:59:01.765Z,100.00
2022-08-14T23:01:55.426Z,100.00
2022-08-14T23:04:34.907Z,100.00
2022-08-14T23:07:22.086Z,97.36
2022-08-14T23:09:57.679Z,100.00
2022-08-14T23:12:54.193Z,98.82
2022-08-14T23:15:28.929Z,99.21
2022-08-14T23:17:59.437Z,100.00
2022-08-14T23:20:29.312Z,100.00
2022-08-14T23:22:59.168Z,100.00
2022-08-14T23:25:56.718Z,100.00
2022-08-14T23:28:34.674Z,100.00
2022-08-14T23:31:16.071Z,100.00
2022-08-14T23:34:07.115Z,100.00
2022-08-14T23:36:53.304Z,100.00
2022-08-14T23:39:29.556Z,99.43
2022-08-14T23:42:04.429Z,100.00
2022-08-14T23:44:37.581Z,99.67
2022-08-14T23:47:11.507Z,98.53
2022-08-14T23:50:00.968Z,98.32
2022-08-14T23:52:50.942Z,97.77
2022-08-14T23:55:24.533Z,97.96
2022-08-14T23:57:57.728Z,96.60
